Oakwood, Oklahoma
Current Conditions -  °F | °C
As of 4:35 AM on Sunday 26 Oct 2014 (Local Time) from KJWG Reporting Station
Clear Clear  
Wind Chill: 67°   Ceiling: Unl
Heat Index: 67°   Visibility: 10mi
Dew Point: 56°   Wind: 12mph
Humidity: 68%   Direction: 190°S
Pressure: 29.92"   Gusts: NA
Location:  35.93°N, 98.71°W
Report Text: KJWG 260935Z AUTO 19010KT 10SM CLR 20/14 A2992 RMK AO2 T01950135
Loading
Personal Weather Stations






























Interactive Weather Map
Tropical Storm Tracking
New forecast layout! Learn more

10-Day Weather Forecast

Advertisements
Track Severe Weather on mobile